sensor_id;sensor_type;location;lat;lon;timestamp;pressure;altitude;pressure_sealevel;temperature
7389;BMP180;3735;50.136;11.062;2023-04-24T00:00:20;97069.00;;;11.40
7389;BMP180;3735;50.136;11.062;2023-04-24T00:02:46;97058.00;;;11.30
7389;BMP180;3735;50.136;11.062;2023-04-24T00:05:14;97049.00;;;11.30
7389;BMP180;3735;50.136;11.062;2023-04-24T00:07:41;97052.00;;;11.30
7389;BMP180;3735;50.136;11.062;2023-04-24T00:10:08;97052.00;;;11.40
7389;BMP180;3735;50.136;11.062;2023-04-24T00:12:35;97056.00;;;11.40
7389;BMP180;3735;50.136;11.062;2023-04-24T00:15:02;97055.00;;;11.40
7389;BMP180;3735;50.136;11.062;2023-04-24T00:17:28;97042.00;;;11.30
7389;BMP180;3735;50.136;11.062;2023-04-24T00:19:54;97036.00;;;11.40
7389;BMP180;3735;50.136;11.062;2023-04-24T00:22:30;97052.00;;;11.40
7389;BMP180;3735;50.136;11.062;2023-04-24T00:24:57;97042.00;;;11.40
7389;BMP180;3735;50.136;11.062;2023-04-24T00:27:23;97045.00;;;11.40
7389;BMP180;3735;50.136;11.062;2023-04-24T00:29:49;97049.00;;;11.40
7389;BMP180;3735;50.136;11.062;2023-04-24T00:32:15;97047.00;;;11.40
7389;BMP180;3735;50.136;11.062;2023-04-24T00:34:41;97042.00;;;11.40
7389;BMP180;3735;50.136;11.062;2023-04-24T00:37:07;97039.00;;;11.40
7389;BMP180;3735;50.136;11.062;2023-04-24T00:39:33;97037.00;;;11.40
7389;BMP180;3735;50.136;11.062;2023-04-24T00:41:59;97007.00;;;11.30
7389;BMP180;3735;50.136;11.062;2023-04-24T00:44:27;97029.00;;;11.20
7389;BMP180;3735;50.136;11.062;2023-04-24T00:46:55;97033.00;;;11.20
7389;BMP180;3735;50.136;11.062;2023-04-24T00:49:21;97022.00;;;11.20
7389;BMP180;3735;50.136;11.062;2023-04-24T00:51:48;97033.00;;;11.20
7389;BMP180;3735;50.136;11.062;2023-04-24T00:54:15;97034.00;;;11.10
7389;BMP180;3735;50.136;11.062;2023-04-24T00:56:42;97042.00;;;11.10
7389;BMP180;3735;50.136;11.062;2023-04-24T00:59:09;97044.00;;;11.00
7389;BMP180;3735;50.136;11.062;2023-04-24T01:01:35;97041.00;;;11.10
7389;BMP180;3735;50.136;11.062;2023-04-24T01:04:02;97042.00;;;11.10
7389;BMP180;3735;50.136;11.062;2023-04-24T01:06:29;97038.00;;;11.10
7389;BMP180;3735;50.136;11.062;2023-04-24T01:08:58;97031.00;;;11.20
7389;BMP180;3735;50.136;11.062;2023-04-24T01:11:25;97027.00;;;11.20
7389;BMP180;3735;50.136;11.062;2023-04-24T01:13:51;97038.00;;;11.20
7389;BMP180;3735;50.136;11.062;2023-04-24T01:16:19;97033.00;;;11.10
7389;BMP180;3735;50.136;11.062;2023-04-24T01:18:46;97035.00;;;11.10
7389;BMP180;3735;50.136;11.062;2023-04-24T01:21:15;97040.00;;;11.10
7389;BMP180;3735;50.136;11.062;2023-04-24T01:23:47;97036.00;;;11.20
7389;BMP180;3735;50.136;11.062;2023-04-24T01:26:15;97039.00;;;11.20
7389;BMP180;3735;50.136;11.062;2023-04-24T01:28:42;97022.00;;;11.20
7389;BMP180;3735;50.136;11.062;2023-04-24T01:31:08;97044.00;;;11.10
7389;BMP180;3735;50.136;11.062;2023-04-24T01:33:34;97042.00;;;11.20
7389;BMP180;3735;50.136;11.062;2023-04-24T01:36:01;97029.00;;;11.20
7389;BMP180;3735;50.136;11.062;2023-04-24T01:38:27;97025.00;;;11.20
7389;BMP180;3735;50.136;11.062;2023-04-24T01:40:53;97023.00;;;11.20
7389;BMP180;3735;50.136;11.062;2023-04-24T01:43:19;96998.00;;;11.20
7389;BMP180;3735;50.136;11.062;2023-04-24T01:45:45;97034.00;;;11.20
7389;BMP180;3735;50.136;11.062;2023-04-24T01:48:12;97030.00;;;11.10
7389;BMP180;3735;50.136;11.062;2023-04-24T01:50:38;97029.00;;;11.10
7389;BMP180;3735;50.136;11.062;2023-04-24T01:53:04;97011.00;;;11.10
7389;BMP180;3735;50.136;11.062;2023-04-24T01:55:30;97034.00;;;11.10
7389;BMP180;3735;50.136;11.062;2023-04-24T01:57:58;97027.00;;;11.10
7389;BMP180;3735;50.136;11.062;2023-04-24T02:00:25;97031.00;;;11.10
7389;BMP180;3735;50.136;11.062;2023-04-24T02:02:51;97023.00;;;11.10
7389;BMP180;3735;50.136;11.062;2023-04-24T02:05:17;97017.00;;;11.10
7389;BMP180;3735;50.136;11.062;2023-04-24T02:07:43;97027.00;;;11.10
7389;BMP180;3735;50.136;11.062;2023-04-24T02:10:09;97027.00;;;11.00
7389;BMP180;3735;50.136;11.062;2023-04-24T02:12:36;97022.00;;;11.00
7389;BMP180;3735;50.136;11.062;2023-04-24T02:15:02;97015.00;;;11.00
7389;BMP180;3735;50.136;11.062;2023-04-24T02:17:28;97015.00;;;10.90
7389;BMP180;3735;50.136;11.062;2023-04-24T02:19:54;97022.00;;;10.90
7389;BMP180;3735;50.136;11.062;2023-04-24T02:22:19;97030.00;;;10.90
7389;BMP180;3735;50.136;11.062;2023-04-24T02:24:45;97033.00;;;10.80
7389;BMP180;3735;50.136;11.062;2023-04-24T02:27:11;97014.00;;;10.80
7389;BMP180;3735;50.136;11.062;2023-04-24T02:29:37;97013.00;;;10.70
7389;BMP180;3735;50.136;11.062;2023-04-24T02:32:03;97016.00;;;10.70
7389;BMP180;3735;50.136;11.062;2023-04-24T02:34:28;97015.00;;;10.60
7389;BMP180;3735;50.136;11.062;2023-04-24T02:36:54;97015.00;;;10.60
7389;BMP180;3735;50.136;11.062;2023-04-24T02:39:20;97008.00;;;10.60
7389;BMP180;3735;50.136;11.062;2023-04-24T02:41:46;97009.00;;;10.50
7389;BMP180;3735;50.136;11.062;2023-04-24T02:44:11;97012.00;;;10.50
7389;BMP180;3735;50.136;11.062;2023-04-24T02:46:37;97005.00;;;10.50
7389;BMP180;3735;50.136;11.062;2023-04-24T02:49:03;97004.00;;;10.50
7389;BMP180;3735;50.136;11.062;2023-04-24T02:51:29;97005.00;;;10.50
7389;BMP180;3735;50.136;11.062;2023-04-24T02:53:55;96980.00;;;10.50
7389;BMP180;3735;50.136;11.062;2023-04-24T02:56:21;97003.00;;;10.40
7389;BMP180;3735;50.136;11.062;2023-04-24T02:58:47;96987.00;;;10.30
7389;BMP180;3735;50.136;11.062;2023-04-24T03:01:13;96987.00;;;10.20
7389;BMP180;3735;50.136;11.062;2023-04-24T03:03:39;96988.00;;;10.10
7389;BMP180;3735;50.136;11.062;2023-04-24T03:06:05;96986.00;;;10.10
7389;BMP180;3735;50.136;11.062;2023-04-24T03:08:32;96971.00;;;10.00
7389;BMP180;3735;50.136;11.062;2023-04-24T03:10:58;96988.00;;;10.00
7389;BMP180;3735;50.136;11.062;2023-04-24T03:13:23;96990.00;;;9.90
7389;BMP180;3735;50.136;11.062;2023-04-24T03:15:49;96987.00;;;9.90
7389;BMP180;3735;50.136;11.062;2023-04-24T03:18:15;96989.00;;;9.90
7389;BMP180;3735;50.136;11.062;2023-04-24T03:20:41;96975.00;;;10.00
7389;BMP180;3735;50.136;11.062;2023-04-24T03:23:06;96978.00;;;10.20
7389;BMP180;3735;50.136;11.062;2023-04-24T03:25:32;96985.00;;;10.50
7389;BMP180;3735;50.136;11.062;2023-04-24T03:27:58;96982.00;;;10.50
7389;BMP180;3735;50.136;11.062;2023-04-24T03:30:24;96988.00;;;10.60
7389;BMP180;3735;50.136;11.062;2023-04-24T03:32:49;96979.00;;;10.80
7389;BMP180;3735;50.136;11.062;2023-04-24T03:35:18;96977.00;;;10.90
7389;BMP180;3735;50.136;11.062;2023-04-24T03:37:44;96966.00;;;11.00
7389;BMP180;3735;50.136;11.062;2023-04-24T03:40:10;96962.00;;;11.10
7389;BMP180;3735;50.136;11.062;2023-04-24T03:42:36;96964.00;;;11.10
7389;BMP180;3735;50.136;11.062;2023-04-24T03:45:02;96968.00;;;11.10
7389;BMP180;3735;50.136;11.062;2023-04-24T03:47:28;96972.00;;;11.10
7389;BMP180;3735;50.136;11.062;2023-04-24T03:49:53;96976.00;;;11.20
7389;BMP180;3735;50.136;11.062;2023-04-24T03:52:21;96977.00;;;11.10
7389;BMP180;3735;50.136;11.062;2023-04-24T03:54:47;96974.00;;;11.20
7389;BMP180;3735;50.136;11.062;2023-04-24T03:57:12;96976.00;;;11.10
7389;BMP180;3735;50.136;11.062;2023-04-24T03:59:38;96981.00;;;11.00
7389;BMP180;3735;50.136;11.062;2023-04-24T04:02:04;96971.00;;;11.00
7389;BMP180;3735;50.136;11.062;2023-04-24T04:04:30;96982.00;;;11.00
7389;BMP180;3735;50.136;11.062;2023-04-24T04:06:56;96986.00;;;11.00
7389;BMP180;3735;50.136;11.062;2023-04-24T04:09:22;96983.00;;;11.10
7389;BMP180;3735;50.136;11.062;2023-04-24T04:11:48;96980.00;;;11.10
7389;BMP180;3735;50.136;11.062;2023-04-24T04:14:13;96984.00;;;11.10
7389;BMP180;3735;50.136;11.062;2023-04-24T04:16:39;96991.00;;;11.20
7389;BMP180;3735;50.136;11.062;2023-04-24T04:19:05;96981.00;;;11.20
7389;BMP180;3735;50.136;11.062;2023-04-24T04:21:31;96979.00;;;11.20
7389;BMP180;3735;50.136;11.062;2023-04-24T04:23:57;96974.00;;;11.10
7389;BMP180;3735;50.136;11.062;2023-04-24T04:26:23;96974.00;;;11.10
7389;BMP180;3735;50.136;11.062;2023-04-24T04:28:52;96951.00;;;11.10
7389;BMP180;3735;50.136;11.062;2023-04-24T04:31:19;96974.00;;;11.10
7389;BMP180;3735;50.136;11.062;2023-04-24T04:33:45;96972.00;;;11.20
7389;BMP180;3735;50.136;11.062;2023-04-24T04:36:11;96978.00;;;11.10
7389;BMP180;3735;50.136;11.062;2023-04-24T04:38:37;96976.00;;;11.20
7389;BMP180;3735;50.136;11.062;2023-04-24T04:41:03;96978.00;;;11.10
7389;BMP180;3735;50.136;11.062;2023-04-24T04:43:29;96987.00;;;11.20
7389;BMP180;3735;50.136;11.062;2023-04-24T04:45:57;96987.00;;;11.10
7389;BMP180;3735;50.136;11.062;2023-04-24T04:48:23;96986.00;;;11.20
7389;BMP180;3735;50.136;11.062;2023-04-24T04:50:49;96987.00;;;11.20
7389;BMP180;3735;50.136;11.062;2023-04-24T04:53:15;96980.00;;;11.20
7389;BMP180;3735;50.136;11.062;2023-04-24T04:55:41;96983.00;;;11.20
7389;BMP180;3735;50.136;11.062;2023-04-24T04:58:07;96982.00;;;11.30
7389;BMP180;3735;50.136;11.062;2023-04-24T05:00:33;96992.00;;;11.30
7389;BMP180;3735;50.136;11.062;2023-04-24T05:03:01;96999.00;;;11.30
7389;BMP180;3735;50.136;11.062;2023-04-24T05:05:28;96982.00;;;11.30
7389;BMP180;3735;50.136;11.062;2023-04-24T05:07:54;96971.00;;;11.30
7389;BMP180;3735;50.136;11.062;2023-04-24T05:10:20;96986.00;;;11.30
7389;BMP180;3735;50.136;11.062;2023-04-24T05:12:45;96991.00;;;11.40
7389;BMP180;3735;50.136;11.062;2023-04-24T05:15:11;96981.00;;;11.50
7389;BMP180;3735;50.136;11.062;2023-04-24T05:17:37;96988.00;;;11.50
7389;BMP180;3735;50.136;11.062;2023-04-24T05:20:05;96997.00;;;11.40
7389;BMP180;3735;50.136;11.062;2023-04-24T05:22:32;97003.00;;;11.50
7389;BMP180;3735;50.136;11.062;2023-04-24T05:24:58;97005.00;;;11.60
7389;BMP180;3735;50.136;11.062;2023-04-24T05:27:24;97007.00;;;11.60
7389;BMP180;3735;50.136;11.062;2023-04-24T05:29:50;97008.00;;;11.70
7389;BMP180;3735;50.136;11.062;2023-04-24T05:32:16;97002.00;;;11.70
7389;BMP180;3735;50.136;11.062;2023-04-24T05:34:42;97006.00;;;11.70
7389;BMP180;3735;50.136;11.062;2023-04-24T05:37:08;97008.00;;;11.70
7389;BMP180;3735;50.136;11.062;2023-04-24T05:39:35;97016.00;;;11.80
7389;BMP180;3735;50.136;11.062;2023-04-24T05:42:02;97018.00;;;11.70
7389;BMP180;3735;50.136;11.062;2023-04-24T05:44:30;97009.00;;;11.70
7389;BMP180;3735;50.136;11.062;2023-04-24T05:46:56;97005.00;;;11.70
7389;BMP180;3735;50.136;11.062;2023-04-24T05:49:22;97019.00;;;11.70
7389;BMP180;3735;50.136;11.062;2023-04-24T05:51:48;97012.00;;;11.60
7389;BMP180;3735;50.136;11.062;2023-04-24T05:54:14;97022.00;;;11.70
7389;BMP180;3735;50.136;11.062;2023-04-24T05:56:40;97007.00;;;11.70
7389;BMP180;3735;50.136;11.062;2023-04-24T05:59:06;97028.00;;;11.80
7389;BMP180;3735;50.136;11.062;2023-04-24T06:01:31;97019.00;;;11.80
7389;BMP180;3735;50.136;11.062;2023-04-24T06:03:58;97018.00;;;11.80
7389;BMP180;3735;50.136;11.062;2023-04-24T06:06:24;97017.00;;;11.80
7389;BMP180;3735;50.136;11.062;2023-04-24T06:08:51;97017.00;;;11.80
7389;BMP180;3735;50.136;11.062;2023-04-24T06:11:17;97027.00;;;11.90
7389;BMP180;3735;50.136;11.062;2023-04-24T06:13:43;97027.00;;;11.90
7389;BMP180;3735;50.136;11.062;2023-04-24T06:16:08;97023.00;;;11.80
7389;BMP180;3735;50.136;11.062;2023-04-24T06:18:34;97027.00;;;11.80
7389;BMP180;3735;50.136;11.062;2023-04-24T06:21:00;97021.00;;;11.90
7389;BMP180;3735;50.136;11.062;2023-04-24T06:23:26;97035.00;;;11.90
7389;BMP180;3735;50.136;11.062;2023-04-24T06:25:52;97027.00;;;11.80
7389;BMP180;3735;50.136;11.062;2023-04-24T06:28:18;97024.00;;;11.70
7389;BMP180;3735;50.136;11.062;2023-04-24T06:30:44;97025.00;;;11.60
7389;BMP180;3735;50.136;11.062;2023-04-24T06:33:10;97038.00;;;11.50
7389;BMP180;3735;50.136;11.062;2023-04-24T06:35:36;97033.00;;;11.20
7389;BMP180;3735;50.136;11.062;2023-04-24T06:38:03;97046.00;;;11.00
7389;BMP180;3735;50.136;11.062;2023-04-24T06:40:29;97046.00;;;10.90
7389;BMP180;3735;50.136;11.062;2023-04-24T06:42:55;97052.00;;;10.80
7389;BMP180;3735;50.136;11.062;2023-04-24T06:45:23;97049.00;;;10.80
7389;BMP180;3735;50.136;11.062;2023-04-24T06:47:49;97051.00;;;10.80
7389;BMP180;3735;50.136;11.062;2023-04-24T06:50:14;97055.00;;;10.70
7389;BMP180;3735;50.136;11.062;2023-04-24T06:52:40;97060.00;;;10.80
7389;BMP180;3735;50.136;11.062;2023-04-24T06:55:07;97046.00;;;10.90
7389;BMP180;3735;50.136;11.062;2023-04-24T06:57:33;97056.00;;;11.00
7389;BMP180;3735;50.136;11.062;2023-04-24T06:59:58;97043.00;;;11.00
7389;BMP180;3735;50.136;11.062;2023-04-24T07:02:25;97046.00;;;11.00
7389;BMP180;3735;50.136;11.062;2023-04-24T07:04:51;97059.00;;;11.10
7389;BMP180;3735;50.136;11.062;2023-04-24T07:07:18;97057.00;;;11.30
7389;BMP180;3735;50.136;11.062;2023-04-24T07:09:44;97058.00;;;11.60
7389;BMP180;3735;50.136;11.062;2023-04-24T07:12:11;97056.00;;;11.70
7389;BMP180;3735;50.136;11.062;2023-04-24T07:14:37;97055.00;;;11.80
7389;BMP180;3735;50.136;11.062;2023-04-24T07:17:06;97054.00;;;11.70
7389;BMP180;3735;50.136;11.062;2023-04-24T07:19:35;97064.00;;;11.80
7389;BMP180;3735;50.136;11.062;2023-04-24T07:22:01;97066.00;;;11.90
7389;BMP180;3735;50.136;11.062;2023-04-24T07:24:27;97077.00;;;11.80
7389;BMP180;3735;50.136;11.062;2023-04-24T07:26:54;97073.00;;;11.80
7389;BMP180;3735;50.136;11.062;2023-04-24T07:29:20;97082.00;;;11.80
7389;BMP180;3735;50.136;11.062;2023-04-24T07:31:46;97087.00;;;11.80
7389;BMP180;3735;50.136;11.062;2023-04-24T07:34:12;97083.00;;;11.80
7389;BMP180;3735;50.136;11.062;2023-04-24T07:36:38;97091.00;;;11.70
7389;BMP180;3735;50.136;11.062;2023-04-24T07:39:05;97087.00;;;11.80
7389;BMP180;3735;50.136;11.062;2023-04-24T07:41:31;97091.00;;;12.20
7389;BMP180;3735;50.136;11.062;2023-04-24T07:43:58;97087.00;;;12.70
7389;BMP180;3735;50.136;11.062;2023-04-24T07:46:24;97085.00;;;13.80
7389;BMP180;3735;50.136;11.062;2023-04-24T07:48:50;97071.00;;;15.40
7389;BMP180;3735;50.136;11.062;2023-04-24T07:51:16;97074.00;;;17.20
7389;BMP180;3735;50.136;11.062;2023-04-24T07:53:43;97078.00;;;17.70
7389;BMP180;3735;50.136;11.062;2023-04-24T07:56:09;97072.00;;;16.30
7389;BMP180;3735;50.136;11.062;2023-04-24T07:58:35;97081.00;;;15.50
7389;BMP180;3735;50.136;11.062;2023-04-24T08:01:01;97076.00;;;14.20
7389;BMP180;3735;50.136;11.062;2023-04-24T08:03:27;97093.00;;;14.20
7389;BMP180;3735;50.136;11.062;2023-04-24T08:05:52;97092.00;;;14.10
7389;BMP180;3735;50.136;11.062;2023-04-24T08:08:22;97107.00;;;13.70
7389;BMP180;3735;50.136;11.062;2023-04-24T08:10:49;97097.00;;;13.30
7389;BMP180;3735;50.136;11.062;2023-04-24T08:13:15;97094.00;;;12.80
7389;BMP180;3735;50.136;11.062;2023-04-24T08:15:41;97097.00;;;13.10
7389;BMP180;3735;50.136;11.062;2023-04-24T08:18:07;97092.00;;;14.20
7389;BMP180;3735;50.136;11.062;2023-04-24T08:20:33;97079.00;;;15.70
7389;BMP180;3735;50.136;11.062;2023-04-24T08:22:58;97082.00;;;16.10
7389;BMP180;3735;50.136;11.062;2023-04-24T08:25:24;97074.00;;;17.00
7389;BMP180;3735;50.136;11.062;2023-04-24T08:27:51;97080.00;;;18.10
7389;BMP180;3735;50.136;11.062;2023-04-24T08:30:18;97094.00;;;17.20
7389;BMP180;3735;50.136;11.062;2023-04-24T08:32:43;97082.00;;;15.90
7389;BMP180;3735;50.136;11.062;2023-04-24T08:35:09;97091.00;;;16.90
7389;BMP180;3735;50.136;11.062;2023-04-24T08:37:36;97090.00;;;17.40
7389;BMP180;3735;50.136;11.062;2023-04-24T08:40:16;97099.00;;;18.10
7389;BMP180;3735;50.136;11.062;2023-04-24T08:42:45;97088.00;;;16.40
7389;BMP180;3735;50.136;11.062;2023-04-24T08:45:14;97107.00;;;16.10
7389;BMP180;3735;50.136;11.062;2023-04-24T08:47:41;97121.00;;;14.70
7389;BMP180;3735;50.136;11.062;2023-04-24T08:50:08;97126.00;;;14.00
7389;BMP180;3735;50.136;11.062;2023-04-24T08:52:35;97135.00;;;14.00
7389;BMP180;3735;50.136;11.062;2023-04-24T08:55:01;97133.00;;;13.70
7389;BMP180;3735;50.136;11.062;2023-04-24T08:57:28;97125.00;;;13.50
7389;BMP180;3735;50.136;11.062;2023-04-24T08:59:56;97120.00;;;14.10
7389;BMP180;3735;50.136;11.062;2023-04-24T09:02:23;97131.00;;;13.60
7389;BMP180;3735;50.136;11.062;2023-04-24T09:04:50;97137.00;;;13.30
7389;BMP180;3735;50.136;11.062;2023-04-24T09:07:19;97144.00;;;13.20
7389;BMP180;3735;50.136;11.062;2023-04-24T09:09:46;97147.00;;;13.30
7389;BMP180;3735;50.136;11.062;2023-04-24T09:12:12;97152.00;;;13.20
7389;BMP180;3735;50.136;11.062;2023-04-24T09:14:38;97153.00;;;13.50
7389;BMP180;3735;50.136;11.062;2023-04-24T09:17:08;97147.00;;;13.30
7389;BMP180;3735;50.136;11.062;2023-04-24T09:19:34;97141.00;;;13.20
7389;BMP180;3735;50.136;11.062;2023-04-24T09:22:04;97141.00;;;13.10
7389;BMP180;3735;50.136;11.062;2023-04-24T09:24:30;97135.00;;;13.70
7389;BMP180;3735;50.136;11.062;2023-04-24T09:26:58;97136.00;;;14.10
7389;BMP180;3735;50.136;11.062;2023-04-24T09:29:25;97134.00;;;14.00
7389;BMP180;3735;50.136;11.062;2023-04-24T09:31:51;97141.00;;;14.30
7389;BMP180;3735;50.136;11.062;2023-04-24T09:34:25;97132.00;;;13.90
7389;BMP180;3735;50.136;11.062;2023-04-24T09:36:52;97135.00;;;13.80
7389;BMP180;3735;50.136;11.062;2023-04-24T09:39:19;97126.00;;;13.60
7389;BMP180;3735;50.136;11.062;2023-04-24T09:44:24;97143.00;;;13.50
7389;BMP180;3735;50.136;11.062;2023-04-24T09:46:59;97149.00;;;13.70
7389;BMP180;3735;50.136;11.062;2023-04-24T09:49:29;97149.00;;;14.20
7389;BMP180;3735;50.136;11.062;2023-04-24T09:54:30;97145.00;;;14.50
7389;BMP180;3735;50.136;11.062;2023-04-24T09:56:56;97136.00;;;14.10
7389;BMP180;3735;50.136;11.062;2023-04-24T09:59:22;97142.00;;;14.10
7389;BMP180;3735;50.136;11.062;2023-04-24T10:01:48;97148.00;;;13.90
7389;BMP180;3735;50.136;11.062;2023-04-24T10:04:19;97148.00;;;13.60
7389;BMP180;3735;50.136;11.062;2023-04-24T10:06:47;97151.00;;;13.10
7389;BMP180;3735;50.136;11.062;2023-04-24T10:09:15;97153.00;;;13.00
7389;BMP180;3735;50.136;11.062;2023-04-24T10:11:47;97158.00;;;13.00
7389;BMP180;3735;50.136;11.062;2023-04-24T10:14:21;97165.00;;;12.90
7389;BMP180;3735;50.136;11.062;2023-04-24T10:16:48;97153.00;;;13.00
7389;BMP180;3735;50.136;11.062;2023-04-24T10:19:16;97154.00;;;13.00
7389;BMP180;3735;50.136;11.062;2023-04-24T10:21:44;97155.00;;;13.50
7389;BMP180;3735;50.136;11.062;2023-04-24T10:24:17;97158.00;;;14.00
7389;BMP180;3735;50.136;11.062;2023-04-24T10:26:45;97166.00;;;14.50
7389;BMP180;3735;50.136;11.062;2023-04-24T10:29:14;97178.00;;;14.20
7389;BMP180;3735;50.136;11.062;2023-04-24T10:31:41;97162.00;;;13.70
7389;BMP180;3735;50.136;11.062;2023-04-24T10:34:09;97157.00;;;13.70
7389;BMP180;3735;50.136;11.062;2023-04-24T10:36:40;97171.00;;;14.00
7389;BMP180;3735;50.136;11.062;2023-04-24T10:39:12;97174.00;;;14.00
7389;BMP180;3735;50.136;11.062;2023-04-24T10:41:39;97172.00;;;14.30
7389;BMP180;3735;50.136;11.062;2023-04-24T10:44:11;97167.00;;;14.40
7389;BMP180;3735;50.136;11.062;2023-04-24T10:46:38;97166.00;;;14.40
7389;BMP180;3735;50.136;11.062;2023-04-24T10:49:07;97175.00;;;13.90
7389;BMP180;3735;50.136;11.062;2023-04-24T10:51:50;97183.00;;;14.20
7389;BMP180;3735;50.136;11.062;2023-04-24T11:02:40;97196.00;;;14.90
7389;BMP180;3735;50.136;11.062;2023-04-24T11:05:16;97190.00;;;14.60
7389;BMP180;3735;50.136;11.062;2023-04-24T11:08:12;97204.00;;;14.70
7389;BMP180;3735;50.136;11.062;2023-04-24T11:10:43;97197.00;;;14.10
7389;BMP180;3735;50.136;11.062;2023-04-24T11:13:10;97202.00;;;14.30
7389;BMP180;3735;50.136;11.062;2023-04-24T11:15:35;97216.00;;;13.80
7389;BMP180;3735;50.136;11.062;2023-04-24T11:18:01;97212.00;;;13.50
7389;BMP180;3735;50.136;11.062;2023-04-24T11:20:27;97222.00;;;13.20
7389;BMP180;3735;50.136;11.062;2023-04-24T11:22:54;97216.00;;;13.30
7389;BMP180;3735;50.136;11.062;2023-04-24T11:25:22;97219.00;;;13.20
7389;BMP180;3735;50.136;11.062;2023-04-24T11:28:04;97220.00;;;13.20
7389;BMP180;3735;50.136;11.062;2023-04-24T11:30:32;97228.00;;;13.20
7389;BMP180;3735;50.136;11.062;2023-04-24T11:33:03;97228.00;;;13.30
7389;BMP180;3735;50.136;11.062;2023-04-24T11:35:29;97212.00;;;13.20
7389;BMP180;3735;50.136;11.062;2023-04-24T11:38:00;97223.00;;;13.40
7389;BMP180;3735;50.136;11.062;2023-04-24T11:40:28;97225.00;;;13.40
7389;BMP180;3735;50.136;11.062;2023-04-24T11:42:54;97232.00;;;13.50
7389;BMP180;3735;50.136;11.062;2023-04-24T11:45:28;97230.00;;;13.60
7389;BMP180;3735;50.136;11.062;2023-04-24T11:47:54;97231.00;;;14.20
7389;BMP180;3735;50.136;11.062;2023-04-24T11:50:23;97228.00;;;14.20
7389;BMP180;3735;50.136;11.062;2023-04-24T11:52:51;97231.00;;;14.20
7389;BMP180;3735;50.136;11.062;2023-04-24T11:57:49;97232.00;;;14.10
7389;BMP180;3735;50.136;11.062;2023-04-24T12:00:21;97236.00;;;14.10
7389;BMP180;3735;50.136;11.062;2023-04-24T12:02:48;97248.00;;;14.60
7389;BMP180;3735;50.136;11.062;2023-04-24T12:07:46;97253.00;;;14.20
7389;BMP180;3735;50.136;11.062;2023-04-24T12:10:12;97253.00;;;13.70
7389;BMP180;3735;50.136;11.062;2023-04-24T12:12:38;97257.00;;;13.50
7389;BMP180;3735;50.136;11.062;2023-04-24T12:15:08;97263.00;;;13.60
7389;BMP180;3735;50.136;11.062;2023-04-24T12:17:35;97274.00;;;13.10
7389;BMP180;3735;50.136;11.062;2023-04-24T12:20:07;97284.00;;;12.80
7389;BMP180;3735;50.136;11.062;2023-04-24T12:22:55;97290.00;;;12.60
7389;BMP180;3735;50.136;11.062;2023-04-24T12:25:27;97291.00;;;12.50
7389;BMP180;3735;50.136;11.062;2023-04-24T12:28:11;97281.00;;;12.40
7389;BMP180;3735;50.136;11.062;2023-04-24T12:30:48;97293.00;;;12.10
7389;BMP180;3735;50.136;11.062;2023-04-24T12:33:21;97292.00;;;12.20
7389;BMP180;3735;50.136;11.062;2023-04-24T12:35:51;97290.00;;;12.40
7389;BMP180;3735;50.136;11.062;2023-04-24T12:38:23;97291.00;;;12.80
7389;BMP180;3735;50.136;11.062;2023-04-24T12:41:19;97264.00;;;13.20
7389;BMP180;3735;50.136;11.062;2023-04-24T12:43:53;97278.00;;;13.40
7389;BMP180;3735;50.136;11.062;2023-04-24T12:46:19;97275.00;;;14.10
7389;BMP180;3735;50.136;11.062;2023-04-24T12:48:44;97266.00;;;14.20
7389;BMP180;3735;50.136;11.062;2023-04-24T12:51:10;97273.00;;;14.20
7389;BMP180;3735;50.136;11.062;2023-04-24T12:53:36;97264.00;;;14.30
7389;BMP180;3735;50.136;11.062;2023-04-24T12:56:02;97258.00;;;14.10
7389;BMP180;3735;50.136;11.062;2023-04-24T12:58:27;97259.00;;;13.70
7389;BMP180;3735;50.136;11.062;2023-04-24T13:00:53;97260.00;;;13.50
7389;BMP180;3735;50.136;11.062;2023-04-24T13:03:19;97259.00;;;13.70
7389;BMP180;3735;50.136;11.062;2023-04-24T13:05:45;97262.00;;;14.30
7389;BMP180;3735;50.136;11.062;2023-04-24T13:08:11;97264.00;;;15.20
7389;BMP180;3735;50.136;11.062;2023-04-24T13:10:39;97220.00;;;16.00
7389;BMP180;3735;50.136;11.062;2023-04-24T13:13:05;97238.00;;;17.00
7389;BMP180;3735;50.136;11.062;2023-04-24T13:15:31;97234.00;;;16.00
7389;BMP180;3735;50.136;11.062;2023-04-24T13:17:57;97240.00;;;15.50
7389;BMP180;3735;50.136;11.062;2023-04-24T13:20:22;97241.00;;;14.70
7389;BMP180;3735;50.136;11.062;2023-04-24T13:22:48;97245.00;;;14.60
7389;BMP180;3735;50.136;11.062;2023-04-24T13:25:14;97262.00;;;13.90
7389;BMP180;3735;50.136;11.062;2023-04-24T13:27:42;97265.00;;;13.40
7389;BMP180;3735;50.136;11.062;2023-04-24T13:30:08;97271.00;;;13.20
7389;BMP180;3735;50.136;11.062;2023-04-24T13:32:34;97265.00;;;13.00
7389;BMP180;3735;50.136;11.062;2023-04-24T13:35:00;97259.00;;;13.20
7389;BMP180;3735;50.136;11.062;2023-04-24T13:37:26;97265.00;;;13.40
7389;BMP180;3735;50.136;11.062;2023-04-24T13:39:52;97258.00;;;13.60
7389;BMP180;3735;50.136;11.062;2023-04-24T13:42:18;97259.00;;;13.70
7389;BMP180;3735;50.136;11.062;2023-04-24T13:44:44;97255.00;;;13.70
7389;BMP180;3735;50.136;11.062;2023-04-24T13:47:10;97262.00;;;13.80
7389;BMP180;3735;50.136;11.062;2023-04-24T13:49:36;97253.00;;;13.70
7389;BMP180;3735;50.136;11.062;2023-04-24T13:52:02;97243.00;;;13.60
7389;BMP180;3735;50.136;11.062;2023-04-24T13:54:28;97255.00;;;13.50
7389;BMP180;3735;50.136;11.062;2023-04-24T13:56:57;97258.00;;;13.10
7389;BMP180;3735;50.136;11.062;2023-04-24T13:59:23;97262.00;;;12.90
7389;BMP180;3735;50.136;11.062;2023-04-24T14:01:49;97268.00;;;12.70
7389;BMP180;3735;50.136;11.062;2023-04-24T14:04:15;97272.00;;;12.40
7389;BMP180;3735;50.136;11.062;2023-04-24T14:06:41;97293.00;;;12.30
7389;BMP180;3735;50.136;11.062;2023-04-24T14:09:06;97247.00;;;12.90
7389;BMP180;3735;50.136;11.062;2023-04-24T14:11:33;97279.00;;;14.50
7389;BMP180;3735;50.136;11.062;2023-04-24T14:14:02;97263.00;;;16.10
7389;BMP180;3735;50.136;11.062;2023-04-24T14:16:28;97266.00;;;15.20
7389;BMP180;3735;50.136;11.062;2023-04-24T14:18:56;97261.00;;;14.30
7389;BMP180;3735;50.136;11.062;2023-04-24T14:21:21;97269.00;;;13.80
7389;BMP180;3735;50.136;11.062;2023-04-24T14:23:47;97277.00;;;13.40
7389;BMP180;3735;50.136;11.062;2023-04-24T14:26:13;97279.00;;;12.90
7389;BMP180;3735;50.136;11.062;2023-04-24T14:28:39;97282.00;;;13.10
7389;BMP180;3735;50.136;11.062;2023-04-24T14:31:05;97282.00;;;13.20
7389;BMP180;3735;50.136;11.062;2023-04-24T14:33:30;97285.00;;;13.10
7389;BMP180;3735;50.136;11.062;2023-04-24T14:35:56;97284.00;;;13.10
7389;BMP180;3735;50.136;11.062;2023-04-24T14:38:22;97288.00;;;13.00